Time;durP1;ratioP1;P1;durP2;ratioP2;P2;SDS_P1;SDS_P2;PMS_P1;PMS_P2;Temp;Humidity;BMP_temperature;BMP_pressure;BME280_temperature;BME280_humidity;BME280_pressure;Samples;Min_cycle;Max_cycle;Signal;HPM_P1;HPM_P2
2022/10/20 00:00:43;;;;;;;4.93;2.80;;;;;;;;;;5071655;28;20315;-45
2022/10/20 00:03:09;;;;;;;3.23;2.90;;;;;;;;;;5071518;28;20639;-46
2022/10/20 00:05:35;;;;;;;7.07;3.50;;;;;;;;;;5071435;28;20191;-46
2022/10/20 00:08:02;;;;;;;7.17;3.50;;;;;;;;;;5071599;28;20277;-46
2022/10/20 00:10:28;;;;;;;4.97;3.30;;;;;;;;;;5071560;28;20252;-45
2022/10/20 00:12:54;;;;;;;6.17;3.33;;;;;;;;;;5071401;28;20200;-45
2022/10/20 00:15:21;;;;;;;6.23;3.17;;;;;;;;;;5071451;28;20287;-45
2022/10/20 00:17:47;;;;;;;5.93;3.50;;;;;;;;;;5071132;28;20258;-45
2022/10/20 00:20:13;;;;;;;7.73;3.53;;;;;;;;;;5071268;28;20223;-46
2022/10/20 00:22:39;;;;;;;6.33;3.20;;;;;;;;;;5071463;28;20298;-44
2022/10/20 00:25:05;;;;;;;5.67;3.63;;;;;;;;;;5071360;28;20242;-45
2022/10/20 00:27:31;;;;;;;4.30;3.33;;;;;;;;;;5071390;28;20191;-45
2022/10/20 00:29:58;;;;;;;7.93;3.70;;;;;;;;;;5071192;28;20215;-45
2022/10/20 00:32:25;;;;;;;4.60;3.40;;;;;;;;;;5071390;28;20652;-45
2022/10/20 00:34:51;;;;;;;4.47;3.10;;;;;;;;;;5071092;28;20206;-45
2022/10/20 00:37:17;;;;;;;6.30;3.23;;;;;;;;;;5071176;28;20250;-45
2022/10/20 00:39:43;;;;;;;3.67;3.30;;;;;;;;;;5071033;28;20199;-43
2022/10/20 00:42:14;;;;;;;5.83;3.50;;;;;;;;;;5071800;28;20199;-45
2022/10/20 00:44:46;;;;;;;6.03;3.57;;;;;;;;;;5075067;28;20655;-45
2022/10/20 00:47:14;;;;;;;4.47;3.07;;;;;;;;;;5074962;28;20192;-45
2022/10/20 00:49:41;;;;;;;5.80;3.00;;;;;;;;;;5074216;28;20563;-45
2022/10/20 00:52:07;;;;;;;7.27;3.90;;;;;;;;;;5075169;28;20199;-45
2022/10/20 00:54:34;;;;;;;3.80;3.10;;;;;;;;;;5074772;28;20199;-45
2022/10/20 00:57:00;;;;;;;4.80;3.30;;;;;;;;;;5074817;28;20665;-46
2022/10/20 00:59:27;;;;;;;5.40;3.27;;;;;;;;;;5074853;28;20214;-45
2022/10/20 01:01:54;;;;;;;5.93;3.13;;;;;;;;;;5074461;28;20666;-45
2022/10/20 01:04:20;;;;;;;5.97;3.03;;;;;;;;;;5074627;28;20222;-45
2022/10/20 01:06:47;;;;;;;5.33;3.87;;;;;;;;;;5074206;28;20733;-45
2022/10/20 01:09:13;;;;;;;4.87;2.90;;;;;;;;;;5074333;28;20219;-45
2022/10/20 01:11:44;;;;;;;5.93;3.60;;;;;;;;;;5074650;28;20290;-45
2022/10/20 01:14:15;;;;;;;7.13;3.30;;;;;;;;;;5074614;28;20669;-45
2022/10/20 01:16:46;;;;;;;5.80;3.47;;;;;;;;;;5074354;28;20733;-45
2022/10/20 01:19:22;;;;;;;3.60;3.30;;;;;;;;;;5074543;28;20215;-45
2022/10/20 01:21:53;;;;;;;4.30;3.10;;;;;;;;;;5074448;28;20221;-45
2022/10/20 01:24:37;;;;;;;4.73;3.37;;;;;;;;;;5074607;28;20303;-45
2022/10/20 01:27:18;;;;;;;5.50;3.10;;;;;;;;;;5064290;28;20288;-45
2022/10/20 01:29:47;;;;;;;4.60;3.20;;;;;;;;;;5074435;28;20423;-45
2022/10/20 01:32:18;;;;;;;3.80;3.20;;;;;;;;;;5074254;28;20223;-45
2022/10/20 01:34:46;;;;;;;3.80;3.37;;;;;;;;;;5074415;28;20654;-44
2022/10/20 01:37:15;;;;;;;5.57;3.83;;;;;;;;;;5074055;28;20265;-45
2022/10/20 01:39:46;;;;;;;5.00;3.17;;;;;;;;;;5073023;28;20654;-44
2022/10/20 01:42:14;;;;;;;3.50;3.13;;;;;;;;;;5074143;28;20184;-44
2022/10/20 01:44:42;;;;;;;5.83;3.23;;;;;;;;;;5074073;28;20192;-45
2022/10/20 01:47:09;;;;;;;4.77;3.43;;;;;;;;;;5073969;28;20692;-44
2022/10/20 01:49:35;;;;;;;6.77;3.30;;;;;;;;;;5073775;28;20206;-44
2022/10/20 01:52:01;;;;;;;4.90;3.27;;;;;;;;;;5073853;28;20195;-44
2022/10/20 01:54:28;;;;;;;6.13;3.40;;;;;;;;;;5071949;28;20237;-45
2022/10/20 01:57:01;;;;;;;7.07;3.20;;;;;;;;;;5073640;28;20203;-44
2022/10/20 01:59:32;;;;;;;3.90;2.97;;;;;;;;;;5073870;28;20238;-44
2022/10/20 02:02:05;;;;;;;4.63;3.00;;;;;;;;;;5073857;28;20570;-45
2022/10/20 02:04:34;;;;;;;6.33;3.40;;;;;;;;;;5073946;28;20200;-44
2022/10/20 02:07:06;;;;;;;5.07;3.13;;;;;;;;;;5073602;28;20199;-46
2022/10/20 02:09:34;;;;;;;4.53;3.60;;;;;;;;;;5073444;28;20253;-45
2022/10/20 02:12:03;;;;;;;7.10;3.77;;;;;;;;;;5073443;28;20207;-45
2022/10/20 02:14:32;;;;;;;5.10;3.50;;;;;;;;;;5073570;28;20199;-47
2022/10/20 02:16:59;;;;;;;5.93;3.33;;;;;;;;;;5073324;28;20683;-45
2022/10/20 02:19:28;;;;;;;5.83;3.80;;;;;;;;;;5073614;28;20283;-45
2022/10/20 02:21:56;;;;;;;5.67;3.50;;;;;;;;;;5073348;28;20206;-44
2022/10/20 02:24:24;;;;;;;5.63;3.80;;;;;;;;;;5073705;28;20298;-45
2022/10/20 02:26:50;;;;;;;4.30;3.27;;;;;;;;;;5073328;28;20230;-46
2022/10/20 02:29:31;;;;;;;3.47;3.10;;;;;;;;;;5073359;28;20241;-44
2022/10/20 02:31:57;;;;;;;4.37;3.50;;;;;;;;;;5072969;28;20196;-45
2022/10/20 02:34:26;;;;;;;4.13;3.13;;;;;;;;;;5073215;28;20655;-45
2022/10/20 02:36:54;;;;;;;3.27;2.90;;;;;;;;;;5073168;28;20210;-45
2022/10/20 02:39:20;;;;;;;6.23;3.13;;;;;;;;;;5072841;28;20234;-44
2022/10/20 02:41:46;;;;;;;6.30;3.50;;;;;;;;;;5073059;28;20286;-46
2022/10/20 02:44:12;;;;;;;4.27;3.43;;;;;;;;;;5072839;28;20658;-44
2022/10/20 02:46:38;;;;;;;3.50;3.20;;;;;;;;;;5072865;28;20200;-44
2022/10/20 02:49:04;;;;;;;5.17;3.40;;;;;;;;;;5072742;28;20226;-44
2022/10/20 02:51:32;;;;;;;4.37;3.63;;;;;;;;;;5072742;28;20274;-43
2022/10/20 02:53:58;;;;;;;5.23;4.07;;;;;;;;;;5072591;28;20295;-43
2022/10/20 02:56:24;;;;;;;4.37;3.60;;;;;;;;;;5072710;28;20720;-44
2022/10/20 02:58:50;;;;;;;4.40;3.30;;;;;;;;;;5072396;28;20231;-44
2022/10/20 03:01:16;;;;;;;4.63;4.00;;;;;;;;;;5072410;28;20234;-45
2022/10/20 03:03:42;;;;;;;4.60;3.27;;;;;;;;;;5072370;28;20287;-45
2022/10/20 03:06:09;;;;;;;4.10;3.20;;;;;;;;;;5072386;28;20258;-45
2022/10/20 03:08:36;;;;;;;4.30;3.23;;;;;;;;;;5072310;28;20489;-44
2022/10/20 03:11:02;;;;;;;5.47;3.40;;;;;;;;;;5072222;28;20199;-44
2022/10/20 03:13:29;;;;;;;4.77;3.47;;;;;;;;;;5072487;28;20207;-45
2022/10/20 03:15:55;;;;;;;4.93;3.50;;;;;;;;;;5072154;28;20200;-44
2022/10/20 03:18:21;;;;;;;4.23;3.60;;;;;;;;;;5071949;28;20231;-44
2022/10/20 03:20:50;;;;;;;4.43;3.93;;;;;;;;;;5071879;28;20418;-45
2022/10/20 03:23:16;;;;;;;5.20;4.00;;;;;;;;;;5072241;28;20203;-44
2022/10/20 03:25:43;;;;;;;4.47;4.00;;;;;;;;;;5071835;28;20226;-44
2022/10/20 03:28:09;;;;;;;3.27;3.07;;;;;;;;;;5072222;28;20247;-44
2022/10/20 03:30:35;;;;;;;4.10;3.53;;;;;;;;;;5071726;28;20721;-45
2022/10/20 03:33:01;;;;;;;5.87;3.40;;;;;;;;;;5070969;28;20670;-45
2022/10/20 03:35:27;;;;;;;5.13;3.30;;;;;;;;;;5071373;28;20708;-45
2022/10/20 03:37:53;;;;;;;7.20;4.00;;;;;;;;;;5071703;28;20226;-44
2022/10/20 03:40:19;;;;;;;5.03;3.50;;;;;;;;;;5072110;28;20211;-45
2022/10/20 03:42:47;;;;;;;5.03;3.83;;;;;;;;;;5071435;28;20199;-45
2022/10/20 03:45:13;;;;;;;5.17;3.70;;;;;;;;;;5071920;28;20249;-44
2022/10/20 03:47:39;;;;;;;6.57;4.13;;;;;;;;;;5071661;28;20199;-44
2022/10/20 03:50:05;;;;;;;4.50;3.73;;;;;;;;;;5071533;28;20243;-44
2022/10/20 03:52:31;;;;;;;5.23;3.10;;;;;;;;;;5071583;28;20200;-44
2022/10/20 03:54:57;;;;;;;6.30;3.83;;;;;;;;;;5071521;28;20207;-45
2022/10/20 03:57:23;;;;;;;3.63;3.30;;;;;;;;;;5071887;28;20220;-44
2022/10/20 03:59:51;;;;;;;3.90;3.43;;;;;;;;;;5071349;28;20195;-45
2022/10/20 04:02:22;;;;;;;3.27;2.90;;;;;;;;;;5071451;28;20206;-44
2022/10/20 04:04:48;;;;;;;5.10;3.70;;;;;;;;;;5071389;28;20634;-45
2022/10/20 04:07:14;;;;;;;6.17;3.90;;;;;;;;;;5071603;28;20580;-44
2022/10/20 04:09:40;;;;;;;4.53;3.73;;;;;;;;;;5071613;28;20202;-44
2022/10/20 04:12:06;;;;;;;7.53;3.70;;;;;;;;;;5071687;28;20199;-44
2022/10/20 04:14:32;;;;;;;4.57;3.53;;;;;;;;;;5071607;28;20246;-44
2022/10/20 04:16:59;;;;;;;4.27;3.80;;;;;;;;;;5070782;28;20291;-44
2022/10/20 04:19:25;;;;;;;3.87;3.33;;;;;;;;;;5071218;28;20938;-44
2022/10/20 04:21:51;;;;;;;4.17;3.63;;;;;;;;;;5071457;28;20442;-43
2022/10/20 04:24:17;;;;;;;4.37;3.80;;;;;;;;;;5071610;28;20199;-44
2022/10/20 04:26:44;;;;;;;4.47;3.40;;;;;;;;;;5071414;28;20241;-45
2022/10/20 04:29:10;;;;;;;3.90;3.60;;;;;;;;;;5071321;28;20552;-45
2022/10/20 04:31:36;;;;;;;5.27;4.33;;;;;;;;;;5071237;28;20488;-44
2022/10/20 04:34:03;;;;;;;4.03;3.60;;;;;;;;;;5071262;28;20199;-44
2022/10/20 04:36:29;;;;;;;4.30;3.77;;;;;;;;;;5071262;28;20484;-44
2022/10/20 04:38:55;;;;;;;4.53;3.47;;;;;;;;;;5071052;28;20556;-44
2022/10/20 04:41:21;;;;;;;4.07;3.33;;;;;;;;;;5071186;28;20184;-44
2022/10/20 04:43:50;;;;;;;4.40;3.10;;;;;;;;;;5070803;28;20812;-44
2022/10/20 04:46:16;;;;;;;4.23;3.20;;;;;;;;;;5070963;28;20215;-45
2022/10/20 04:48:45;;;;;;;3.40;3.10;;;;;;;;;;5071017;28;20635;-45
2022/10/20 04:51:14;;;;;;;6.03;3.53;;;;;;;;;;5070968;28;20504;-44
2022/10/20 04:53:40;;;;;;;7.20;3.90;;;;;;;;;;5071213;28;20206;-44
2022/10/20 04:56:08;;;;;;;3.60;3.17;;;;;;;;;;5070932;28;20599;-45
2022/10/20 04:58:34;;;;;;;5.57;3.50;;;;;;;;;;5071043;28;20223;-44
2022/10/20 05:01:00;;;;;;;4.07;3.40;;;;;;;;;;5070838;28;20495;-44
2022/10/20 05:03:26;;;;;;;4.67;3.50;;;;;;;;;;5071094;28;20230;-44
2022/10/20 05:05:52;;;;;;;5.03;3.70;;;;;;;;;;5070905;28;20219;-44
2022/10/20 05:08:19;;;;;;;3.63;3.03;;;;;;;;;;5070906;28;20923;-45
2022/10/20 05:10:45;;;;;;;4.60;3.40;;;;;;;;;;5070822;28;20702;-44
2022/10/20 05:13:11;;;;;;;6.47;3.70;;;;;;;;;;5070841;28;20207;-44
2022/10/20 05:15:37;;;;;;;3.80;3.50;;;;;;;;;;5070931;28;20208;-44
2022/10/20 05:18:03;;;;;;;4.67;3.90;;;;;;;;;;5070572;28;20227;-44
2022/10/20 05:20:29;;;;;;;4.50;3.53;;;;;;;;;;5070868;28;20200;-44
2022/10/20 05:22:55;;;;;;;4.23;3.53;;;;;;;;;;5070704;28;20287;-43
2022/10/20 05:25:23;;;;;;;3.77;3.47;;;;;;;;;;5071005;28;20287;-43
2022/10/20 05:27:49;;;;;;;4.00;3.60;;;;;;;;;;5070684;28;20196;-43
2022/10/20 05:30:15;;;;;;;6.57;4.30;;;;;;;;;;5073058;28;20654;-43
2022/10/20 05:32:41;;;;;;;4.37;3.90;;;;;;;;;;5074013;28;20850;-43
2022/10/20 05:35:07;;;;;;;5.67;3.97;;;;;;;;;;5074384;28;20610;-43
2022/10/20 05:37:34;;;;;;;4.60;3.57;;;;;;;;;;5074247;28;20298;-43
2022/10/20 05:40:02;;;;;;;8.17;3.70;;;;;;;;;;5074064;28;21340;-44
2022/10/20 05:42:29;;;;;;;6.03;4.00;;;;;;;;;;5074172;28;20195;-43
2022/10/20 05:44:55;;;;;;;6.20;3.53;;;;;;;;;;5073954;28;20532;-44
2022/10/20 05:47:21;;;;;;;4.53;3.60;;;;;;;;;;5073974;28;20234;-44
2022/10/20 05:49:47;;;;;;;5.47;3.40;;;;;;;;;;5073295;28;20479;-44
2022/10/20 05:52:13;;;;;;;6.07;4.10;;;;;;;;;;5072883;28;20200;-44
2022/10/20 05:54:40;;;;;;;3.80;3.50;;;;;;;;;;5072690;28;20195;-44
2022/10/20 05:57:06;;;;;;;5.80;3.70;;;;;;;;;;5073673;28;20449;-44
2022/10/20 05:59:33;;;;;;;5.97;3.33;;;;;;;;;;5073411;28;20485;-44
2022/10/20 06:01:59;;;;;;;5.00;3.93;;;;;;;;;;5073549;28;20468;-43
2022/10/20 06:04:27;;;;;;;3.80;3.27;;;;;;;;;;5073513;28;20430;-44
2022/10/20 06:06:53;;;;;;;4.23;3.43;;;;;;;;;;5073550;28;20275;-44
2022/10/20 06:09:20;;;;;;;5.77;3.77;;;;;;;;;;5073553;28;20800;-44
2022/10/20 06:11:46;;;;;;;5.60;3.70;;;;;;;;;;5073547;28;20441;-44
2022/10/20 06:14:12;;;;;;;4.27;3.80;;;;;;;;;;5073320;28;20474;-44
2022/10/20 06:16:39;;;;;;;5.37;3.80;;;;;;;;;;5073544;28;20441;-44
2022/10/20 06:19:06;;;;;;;4.93;3.60;;;;;;;;;;5073313;28;20239;-44
2022/10/20 06:21:33;;;;;;;4.93;3.60;;;;;;;;;;5071787;28;20464;-44
2022/10/20 06:23:59;;;;;;;9.07;4.10;;;;;;;;;;5072818;28;20441;-44
2022/10/20 06:26:28;;;;;;;5.10;3.67;;;;;;;;;;5073099;28;20212;-44
2022/10/20 06:28:55;;;;;;;5.20;3.77;;;;;;;;;;5072731;28;20211;-44
2022/10/20 06:31:23;;;;;;;5.90;4.07;;;;;;;;;;5073241;28;20580;-44
2022/10/20 06:33:50;;;;;;;4.70;3.40;;;;;;;;;;5073064;28;20441;-44
2022/10/20 06:36:17;;;;;;;5.50;4.23;;;;;;;;;;5073140;28;20207;-44
2022/10/20 06:38:43;;;;;;;5.53;4.07;;;;;;;;;;5072009;28;20322;-44
2022/10/20 06:41:13;;;;;;;3.80;3.43;;;;;;;;;;5072053;28;20433;-44
2022/10/20 06:43:39;;;;;;;5.10;3.47;;;;;;;;;;5072268;28;20200;-43
2022/10/20 06:46:06;;;;;;;5.77;3.53;;;;;;;;;;5073068;28;20291;-44
2022/10/20 06:48:33;;;;;;;3.53;3.00;;;;;;;;;;5073008;28;20192;-44
2022/10/20 06:51:01;;;;;;;4.60;3.53;;;;;;;;;;5072844;28;20322;-44
2022/10/20 06:53:28;;;;;;;3.83;3.33;;;;;;;;;;5072974;28;20207;-44
2022/10/20 06:55:57;;;;;;;4.20;3.60;;;;;;;;;;5069344;28;20237;-44
2022/10/20 06:58:23;;;;;;;6.23;3.50;;;;;;;;;;5061134;28;20227;-43
2022/10/20 07:00:57;;;;;;;4.03;3.43;;;;;;;;;;5061453;28;20218;-44
2022/10/20 07:03:23;;;;;;;5.07;3.83;;;;;;;;;;5052383;28;20196;-44
2022/10/20 07:05:49;;;;;;;6.70;3.50;;;;;;;;;;5052126;28;20257;-44
2022/10/20 07:08:16;;;;;;;4.87;3.90;;;;;;;;;;5052318;28;20286;-45
2022/10/20 07:10:42;;;;;;;4.47;3.27;;;;;;;;;;5052365;28;20290;-44
2022/10/20 07:13:08;;;;;;;5.07;3.57;;;;;;;;;;5052349;28;20208;-44
2022/10/20 07:15:34;;;;;;;4.10;3.40;;;;;;;;;;5052305;28;20576;-44
2022/10/20 07:18:00;;;;;;;4.53;3.60;;;;;;;;;;5051814;28;20227;-44
2022/10/20 07:20:27;;;;;;;4.30;3.67;;;;;;;;;;5052217;28;20200;-44
2022/10/20 07:22:53;;;;;;;5.33;4.27;;;;;;;;;;5051949;28;20203;-44
2022/10/20 07:25:21;;;;;;;5.40;3.67;;;;;;;;;;5050324;28;20214;-44
2022/10/20 07:27:47;;;;;;;4.33;3.60;;;;;;;;;;5052072;28;20205;-44
2022/10/20 07:30:13;;;;;;;4.80;3.93;;;;;;;;;;5052018;28;20206;-44
2022/10/20 07:32:39;;;;;;;7.30;3.77;;;;;;;;;;5051972;28;20200;-44
2022/10/20 07:35:06;;;;;;;4.13;3.50;;;;;;;;;;5052106;28;20266;-44
2022/10/20 07:37:32;;;;;;;5.17;3.63;;;;;;;;;;5051723;28;20234;-45
2022/10/20 07:39:58;;;;;;;4.57;3.67;;;;;;;;;;5051796;28;20200;-45
2022/10/20 07:42:26;;;;;;;5.20;4.33;;;;;;;;;;5051902;28;20704;-45
2022/10/20 07:44:52;;;;;;;7.17;3.60;;;;;;;;;;5051504;28;20311;-46
2022/10/20 07:47:18;;;;;;;3.87;3.53;;;;;;;;;;5050948;28;20283;-45
2022/10/20 07:49:44;;;;;;;4.13;3.47;;;;;;;;;;5051668;28;20220;-45
2022/10/20 07:52:10;;;;;;;5.63;3.87;;;;;;;;;;5051040;28;20254;-45
2022/10/20 07:54:36;;;;;;;5.10;3.73;;;;;;;;;;5051305;28;20203;-45
2022/10/20 07:57:02;;;;;;;5.17;3.73;;;;;;;;;;5050845;28;20681;-45
2022/10/20 07:59:30;;;;;;;4.93;4.00;;;;;;;;;;5051464;28;20239;-45
2022/10/20 08:01:56;;;;;;;4.57;3.80;;;;;;;;;;5051266;28;20211;-45
2022/10/20 08:04:22;;;;;;;5.20;3.63;;;;;;;;;;5051242;28;20196;-46
2022/10/20 08:06:48;;;;;;;4.27;3.87;;;;;;;;;;5051536;28;20206;-45
2022/10/20 08:09:14;;;;;;;4.83;4.03;;;;;;;;;;5050990;28;20300;-45
2022/10/20 08:11:40;;;;;;;5.87;4.00;;;;;;;;;;5051306;28;20745;-45
2022/10/20 08:14:06;;;;;;;4.30;3.87;;;;;;;;;;5051175;28;20239;-45
2022/10/20 08:16:33;;;;;;;5.47;3.60;;;;;;;;;;5051369;28;20212;-44
2022/10/20 08:18:59;;;;;;;4.00;3.70;;;;;;;;;;5051123;28;20220;-45
2022/10/20 08:21:25;;;;;;;4.30;3.90;;;;;;;;;;5051218;28;20666;-45
2022/10/20 08:23:51;;;;;;;5.00;3.67;;;;;;;;;;5050476;28;20198;-45
2022/10/20 08:26:18;;;;;;;5.17;3.90;;;;;;;;;;5050335;28;20203;-45
2022/10/20 08:28:44;;;;;;;3.80;3.47;;;;;;;;;;5051167;28;20600;-45
2022/10/20 08:31:10;;;;;;;5.17;3.40;;;;;;;;;;5051207;28;20684;-47
2022/10/20 08:33:38;;;;;;;4.87;3.30;;;;;;;;;;5050272;28;20288;-45
2022/10/20 08:36:05;;;;;;;7.40;3.97;;;;;;;;;;5050873;28;20278;-46
2022/10/20 08:38:31;;;;;;;4.20;3.10;;;;;;;;;;5050538;28;20232;-46
2022/10/20 08:40:58;;;;;;;3.97;3.47;;;;;;;;;;5050880;28;20535;-44
2022/10/20 08:43:24;;;;;;;5.70;3.80;;;;;;;;;;5051033;28;20211;-45
2022/10/20 08:45:50;;;;;;;4.33;3.73;;;;;;;;;;5050679;28;20204;-44
2022/10/20 08:48:18;;;;;;;5.00;3.60;;;;;;;;;;5051032;28;20203;-45
2022/10/20 08:50:47;;;;;;;3.40;3.10;;;;;;;;;;5050095;28;20606;-45
2022/10/20 08:53:13;;;;;;;4.53;3.70;;;;;;;;;;5050985;28;20207;-45
2022/10/20 08:55:39;;;;;;;5.13;4.07;;;;;;;;;;5050622;28;20655;-45
2022/10/20 08:58:06;;;;;;;4.87;3.47;;;;;;;;;;5050841;28;20710;-46
2022/10/20 09:00:35;;;;;;;4.03;3.33;;;;;;;;;;5051015;28;20194;-45
2022/10/20 09:03:02;;;;;;;3.60;3.30;;;;;;;;;;5051294;28;20296;-45
2022/10/20 09:05:29;;;;;;;5.80;3.23;;;;;;;;;;5054565;28;20659;-46
2022/10/20 09:07:57;;;;;;;3.63;3.30;;;;;;;;;;5052855;28;20236;-45
2022/10/20 09:10:25;;;;;;;4.47;3.20;;;;;;;;;;5054523;28;20196;-45
2022/10/20 09:12:52;;;;;;;5.10;3.70;;;;;;;;;;5054634;28;20207;-45
2022/10/20 09:15:19;;;;;;;7.00;4.00;;;;;;;;;;5054469;28;20200;-45
2022/10/20 09:17:46;;;;;;;4.70;3.70;;;;;;;;;;5054244;28;20203;-45
2022/10/20 09:20:15;;;;;;;4.40;3.77;;;;;;;;;;5054481;28;20254;-46
2022/10/20 09:22:41;;;;;;;3.80;3.43;;;;;;;;;;5054387;28;20336;-45
2022/10/20 09:25:12;;;;;;;4.37;3.50;;;;;;;;;;5054120;28;20231;-46
2022/10/20 09:27:40;;;;;;;8.43;3.43;;;;;;;;;;5053989;28;20250;-46
2022/10/20 09:30:13;;;;;;;4.63;3.80;;;;;;;;;;5054213;28;20231;-46
2022/10/20 09:32:39;;;;;;;6.50;3.93;;;;;;;;;;5053638;28;20203;-46
2022/10/20 09:35:17;;;;;;;5.63;4.00;;;;;;;;;;5054282;28;20282;-46
2022/10/20 09:37:45;;;;;;;6.47;4.03;;;;;;;;;;5053342;28;20230;-46
2022/10/20 09:40:15;;;;;;;6.30;4.43;;;;;;;;;;5054102;28;20200;-46
2022/10/20 09:42:44;;;;;;;5.07;4.57;;;;;;;;;;5054231;28;20200;-46
2022/10/20 09:45:16;;;;;;;6.40;4.77;;;;;;;;;;5054081;28;20250;-46
2022/10/20 09:47:43;;;;;;;7.93;4.57;;;;;;;;;;5053918;28;20614;-46
2022/10/20 09:50:17;;;;;;;5.00;4.47;;;;;;;;;;5053713;28;20236;-46
2022/10/20 09:52:47;;;;;;;5.17;4.70;;;;;;;;;;5053394;28;20806;-46
2022/10/20 09:55:23;;;;;;;4.93;3.70;;;;;;;;;;5053594;28;20196;-45
2022/10/20 09:57:49;;;;;;;6.17;4.73;;;;;;;;;;5053777;28;20200;-45
2022/10/20 10:00:22;;;;;;;5.93;4.30;;;;;;;;;;5053707;28;20261;-45
2022/10/20 10:02:48;;;;;;;7.87;4.03;;;;;;;;;;5052935;28;20204;-45
2022/10/20 10:05:17;;;;;;;6.03;4.00;;;;;;;;;;5053733;28;20196;-45
2022/10/20 10:07:43;;;;;;;6.10;4.37;;;;;;;;;;5053671;28;20220;-45
2022/10/20 10:10:23;;;;;;;4.07;3.50;;;;;;;;;;5053641;28;20334;-44
2022/10/20 10:12:51;;;;;;;6.33;4.37;;;;;;;;;;5053134;28;20204;-46
2022/10/20 10:15:24;;;;;;;5.43;4.40;;;;;;;;;;5051773;28;20299;-45
2022/10/20 10:17:50;;;;;;;3.90;3.47;;;;;;;;;;5053323;28;20250;-46
2022/10/20 10:20:27;;;;;;;4.63;3.87;;;;;;;;;;5053440;28;20200;-44
2022/10/20 10:23:06;;;;;;;5.30;4.00;;;;;;;;;;5052630;28;20196;-45
2022/10/20 10:25:33;;;;;;;4.80;3.73;;;;;;;;;;5053183;28;20207;-45
2022/10/20 10:28:02;;;;;;;5.57;4.00;;;;;;;;;;5052087;28;20197;-45
2022/10/20 10:30:30;;;;;;;6.20;4.37;;;;;;;;;;5051969;28;20207;-46
2022/10/20 10:32:56;;;;;;;6.13;4.20;;;;;;;;;;5052892;28;20647;-45
2022/10/20 10:35:24;;;;;;;5.63;3.57;;;;;;;;;;5053267;28;20279;-46
2022/10/20 10:37:51;;;;;;;9.83;4.10;;;;;;;;;;5052839;28;20207;-46
2022/10/20 10:40:19;;;;;;;6.67;3.77;;;;;;;;;;5052885;28;20299;-47
2022/10/20 10:42:56;;;;;;;4.40;4.00;;;;;;;;;;5052875;28;20240;-47
2022/10/20 10:45:28;;;;;;;6.07;4.57;;;;;;;;;;5053127;28;20203;-46
2022/10/20 10:48:15;;;;;;;4.70;4.20;;;;;;;;;;5051857;28;20651;-47
2022/10/20 10:50:43;;;;;;;4.70;4.10;;;;;;;;;;5052786;28;20234;-47
2022/10/20 10:53:15;;;;;;;8.10;4.27;;;;;;;;;;5052250;28;20212;-47
2022/10/20 10:55:46;;;;;;;5.03;4.20;;;;;;;;;;5052787;28;20196;-47
2022/10/20 10:58:19;;;;;;;8.80;6.13;;;;;;;;;;5052160;28;20212;-47
2022/10/20 11:00:49;;;;;;;6.87;4.47;;;;;;;;;;5051995;28;20208;-47
2022/10/20 11:03:20;;;;;;;4.53;4.13;;;;;;;;;;5052343;28;20232;-47
2022/10/20 11:06:01;;;;;;;8.20;4.70;;;;;;;;;;5052295;28;20275;-46
2022/10/20 11:08:33;;;;;;;4.83;4.27;;;;;;;;;;5049637;28;20226;-46
2022/10/20 11:11:02;;;;;;;5.00;4.07;;;;;;;;;;5052497;28;20202;-46
2022/10/20 11:13:32;;;;;;;5.10;4.50;;;;;;;;;;5053281;28;20200;-47
2022/10/20 11:16:01;;;;;;;4.40;4.03;;;;;;;;;;5051494;28;20208;-47
2022/10/20 11:18:37;;;;;;;5.30;4.00;;;;;;;;;;5051156;28;20224;-47
2022/10/20 11:21:09;;;;;;;5.13;4.00;;;;;;;;;;5052250;28;20210;-46
2022/10/20 11:23:43;;;;;;;5.27;4.00;;;;;;;;;;5052271;28;20733;-47
2022/10/20 11:26:13;;;;;;;4.20;3.80;;;;;;;;;;5052051;28;20462;-47
2022/10/20 11:28:43;;;;;;;4.73;4.20;;;;;;;;;;5052005;28;20199;-47
2022/10/20 11:31:15;;;;;;;6.03;4.10;;;;;;;;;;5051557;28;20299;-47
2022/10/20 11:33:43;;;;;;;8.13;4.17;;;;;;;;;;5052169;28;20207;-47
2022/10/20 11:36:12;;;;;;;7.20;4.40;;;;;;;;;;5051712;28;20212;-47
2022/10/20 11:38:41;;;;;;;4.70;4.30;;;;;;;;;;5051867;28;20581;-47
2022/10/20 11:41:11;;;;;;;7.17;4.40;;;;;;;;;;5051685;28;20200;-46
2022/10/20 11:43:40;;;;;;;6.27;3.87;;;;;;;;;;5051891;28;20206;-47
2022/10/20 11:46:09;;;;;;;5.07;3.83;;;;;;;;;;5051702;28;20283;-47
2022/10/20 11:48:38;;;;;;;5.90;4.40;;;;;;;;;;5051407;28;20208;-47
2022/10/20 11:51:13;;;;;;;7.03;4.33;;;;;;;;;;5051171;28;20247;-46
2022/10/20 11:53:57;;;;;;;6.17;4.13;;;;;;;;;;5051624;28;20603;-47
2022/10/20 11:56:29;;;;;;;4.33;3.37;;;;;;;;;;5051469;28;20203;-47
2022/10/20 11:59:13;;;;;;;4.10;3.70;;;;;;;;;;5050695;28;20235;-46
2022/10/20 12:01:43;;;;;;;3.70;3.40;;;;;;;;;;5050557;28;20200;-47
2022/10/20 12:04:30;;;;;;;6.13;3.60;;;;;;;;;;5051571;28;20567;-46
2022/10/20 12:07:05;;;;;;;4.23;3.57;;;;;;;;;;5017843;28;20200;-48
2022/10/20 12:09:52;;;;;;;5.97;4.30;;;;;;;;;;5051423;28;20562;-47
2022/10/20 12:12:19;;;;;;;6.60;3.50;;;;;;;;;;5051505;28;20200;-48
2022/10/20 12:14:49;;;;;;;8.00;4.03;;;;;;;;;;5051473;28;20226;-47
2022/10/20 12:17:22;;;;;;;4.50;3.53;;;;;;;;;;5051098;28;20200;-48
2022/10/20 12:19:52;;;;;;;4.00;3.60;;;;;;;;;;5051327;28;20232;-47
2022/10/20 12:22:38;;;;;;;4.83;3.53;;;;;;;;;;5051520;28;20203;-47
2022/10/20 12:25:19;;;;;;;5.30;3.40;;;;;;;;;;5046132;28;20428;-47
2022/10/20 12:27:45;;;;;;;5.83;3.90;;;;;;;;;;5051350;28;20211;-47
2022/10/20 12:30:30;;;;;;;3.90;3.50;;;;;;;;;;5051022;28;20200;-47
2022/10/20 12:33:08;;;;;;;4.70;3.90;;;;;;;;;;5049873;28;20445;-47
2022/10/20 12:35:52;;;;;;;5.57;3.60;;;;;;;;;;5050900;28;20204;-47
2022/10/20 12:38:18;;;;;;;5.87;3.80;;;;;;;;;;5051239;28;20232;-47
2022/10/20 12:40:46;;;;;;;6.50;3.80;;;;;;;;;;5055386;28;20207;-47
2022/10/20 12:43:22;;;;;;;4.57;3.63;;;;;;;;;;5054543;28;20647;-47
2022/10/20 12:45:49;;;;;;;7.90;4.63;;;;;;;;;;5054174;28;20222;-47
2022/10/20 12:48:20;;;;;;;5.57;4.20;;;;;;;;;;5054271;28;20196;-47
2022/10/20 12:50:48;;;;;;;6.37;3.83;;;;;;;;;;5054086;28;20311;-47
2022/10/20 12:53:19;;;;;;;4.97;3.90;;;;;;;;;;5054146;28;20222;-47
2022/10/20 12:55:47;;;;;;;4.83;4.10;;;;;;;;;;5054257;28;20199;-48
2022/10/20 12:58:25;;;;;;;5.80;3.90;;;;;;;;;;5053928;28;20220;-47
2022/10/20 13:01:18;;;;;;;5.13;3.83;;;;;;;;;;5053927;28;20196;-47
2022/10/20 13:03:47;;;;;;;4.53;4.10;;;;;;;;;;5041302;28;20204;-47
2022/10/20 13:06:32;;;;;;;7.27;4.10;;;;;;;;;;5059766;28;20201;-47
2022/10/20 13:09:18;;;;;;;7.30;4.13;;;;;;;;;;5054586;28;20204;-46
2022/10/20 13:11:52;;;;;;;5.73;3.97;;;;;;;;;;5054492;28;20246;-46
2022/10/20 13:14:45;;;;;;;11.07;3.90;;;;;;;;;;5054373;28;20658;-46
2022/10/20 13:17:15;;;;;;;7.43;3.93;;;;;;;;;;5029894;28;20238;-46
2022/10/20 13:19:45;;;;;;;5.43;3.80;;;;;;;;;;5054384;28;20251;-46
2022/10/20 13:22:38;;;;;;;5.30;4.30;;;;;;;;;;5054414;28;20204;-46
2022/10/20 13:25:06;;;;;;;5.10;4.30;;;;;;;;;;5029729;28;20208;-46
2022/10/20 13:27:32;;;;;;;7.23;4.10;;;;;;;;;;5053632;28;20200;-46
2022/10/20 13:29:58;;;;;;;5.57;4.27;;;;;;;;;;5054433;28;20197;-46
2022/10/20 13:32:27;;;;;;;6.47;4.23;;;;;;;;;;5054311;28;20281;-47
2022/10/20 13:34:56;;;;;;;5.03;4.43;;;;;;;;;;5054300;28;20228;-46
2022/10/20 13:37:29;;;;;;;4.50;4.10;;;;;;;;;;5054366;28;20209;-50
2022/10/20 13:40:00;;;;;;;4.90;4.37;;;;;;;;;;5054133;28;20224;-47
2022/10/20 13:42:32;;;;;;;9.53;4.90;;;;;;;;;;5054284;28;20587;-47
2022/10/20 13:45:01;;;;;;;6.10;4.97;;;;;;;;;;5053601;28;20234;-47
2022/10/20 13:47:35;;;;;;;8.30;5.00;;;;;;;;;;5053203;28;20203;-47
2022/10/20 13:50:05;;;;;;;8.13;5.10;;;;;;;;;;5052294;28;20260;-45
2022/10/20 13:52:33;;;;;;;5.83;4.70;;;;;;;;;;5053815;28;20201;-45
2022/10/20 13:55:00;;;;;;;8.77;4.63;;;;;;;;;;5053909;28;20200;-45
2022/10/20 13:57:27;;;;;;;6.97;4.63;;;;;;;;;;5053884;28;20250;-45
2022/10/20 13:59:57;;;;;;;4.77;4.27;;;;;;;;;;5052167;28;20232;-45
2022/10/20 14:02:24;;;;;;;7.40;4.93;;;;;;;;;;5053849;28;20204;-46
2022/10/20 14:05:01;;;;;;;5.73;4.97;;;;;;;;;;5053974;28;20208;-46
2022/10/20 14:07:35;;;;;;;7.57;4.73;;;;;;;;;;5054022;28;20228;-46
2022/10/20 14:10:01;;;;;;;6.93;4.20;;;;;;;;;;5053843;28;20199;-45
2022/10/20 14:12:28;;;;;;;9.83;5.30;;;;;;;;;;5053896;28;20558;-46
2022/10/20 14:14:55;;;;;;;5.03;4.53;;;;;;;;;;5053825;28;20750;-46
2022/10/20 14:17:22;;;;;;;7.17;5.23;;;;;;;;;;5053623;28;20238;-46
2022/10/20 14:19:48;;;;;;;5.83;5.10;;;;;;;;;;5053599;28;20235;-46
2022/10/20 14:22:16;;;;;;;6.07;4.10;;;;;;;;;;5053500;28;20219;-45
2022/10/20 14:24:45;;;;;;;7.73;5.03;;;;;;;;;;5053573;28;20541;-46
2022/10/20 14:27:15;;;;;;;5.50;4.57;;;;;;;;;;5053484;28;20211;-46
2022/10/20 14:29:41;;;;;;;5.20;4.70;;;;;;;;;;5053668;28;20202;-46
2022/10/20 14:32:07;;;;;;;5.40;4.50;;;;;;;;;;5053233;28;20235;-46
2022/10/20 14:34:34;;;;;;;9.80;5.50;;;;;;;;;;5053195;28;20192;-46
2022/10/20 14:37:00;;;;;;;8.13;4.83;;;;;;;;;;5053259;28;20613;-46
2022/10/20 14:39:32;;;;;;;6.43;4.80;;;;;;;;;;5053231;28;20220;-46
2022/10/20 14:42:00;;;;;;;6.30;4.80;;;;;;;;;;5053446;28;20211;-45
2022/10/20 14:44:26;;;;;;;6.83;4.90;;;;;;;;;;5053290;28;20204;-45
2022/10/20 14:46:54;;;;;;;8.20;5.10;;;;;;;;;;5053264;28;20669;-45
2022/10/20 14:49:22;;;;;;;8.40;5.40;;;;;;;;;;5053096;28;20188;-46
2022/10/20 14:51:53;;;;;;;5.17;4.67;;;;;;;;;;5053010;28;20239;-47